Terminal Aerodrome Forecast
Issued by NWS Midland/Odessa, TX

Home | Current Version | Previous Version | Text Only | Print | Product List | Glossary On
Versions: 1 2 3 4 5 6 7 8 9 10 11 12 13 14 15 16 17
000
FTUS44 KMAF 202300
TAFMAF
TAF
KMAF 202334Z 2100/2124 18009KT P6SM FEW200
     FM210600 19007KT 5SM BR OVC010
      TEMPO 2110/2114 1/4SM FG OVC001
     FM211500 22009KT P6SM SCT010
     FM211800 25012G18KT P6SM FEW250=

USA.gov is the U.S. government's official web portal to all federal, state and local government web resources and services.